Time;durP1;ratioP1;P1;durP2;ratioP2;P2;SDS_P1;SDS_P2;PMS_P1;PMS_P2;Temp;Humidity;BMP_temperature;BMP_pressure;BME280_temperature;BME280_humidity;BME280_pressure;Samples;Min_cycle;Max_cycle;Signal;HPM_P1;HPM_P2
2023/05/23 00:02:12;;;;;;;21.23;10.90;;;;;;;13.91;100.00;101250.50;5067729;28;20056;-73
2023/05/23 00:04:39;;;;;;;20.90;10.02;;;;;;;13.96;100.00;101249.97;5066181;28;20746;-72
2023/05/23 00:07:05;;;;;;;24.55;10.88;;;;;;;14.00;100.00;101261.88;5069547;28;20080;-72
2023/05/23 00:09:32;;;;;;;19.85;10.15;;;;;;;13.98;100.00;101270.69;5062015;28;20084;-72
2023/05/23 00:11:59;;;;;;;19.58;9.85;;;;;;;14.02;100.00;101267.84;5065499;28;20044;-72
2023/05/23 00:14:26;;;;;;;19.48;9.10;;;;;;;14.04;100.00;101268.22;5063859;28;20059;-73
2023/05/23 00:16:53;;;;;;;16.40;7.43;;;;;;;13.97;100.00;101266.31;5062438;28;20052;-73
2023/05/23 00:19:20;;;;;;;16.52;7.22;;;;;;;14.13;100.00;101276.81;5069075;28;20567;-73
2023/05/23 00:21:47;;;;;;;16.50;7.70;;;;;;;14.16;100.00;101282.34;5065319;28;20079;-71
2023/05/23 00:24:19;;;;;;;16.67;6.53;;;;;;;14.21;100.00;101281.06;5063529;28;20059;-71
2023/05/23 00:26:46;;;;;;;17.30;7.68;;;;;;;14.27;100.00;101282.94;5064858;28;20406;-72
2023/05/23 00:29:15;;;;;;;12.70;6.60;;;;;;;14.27;100.00;101282.94;5062621;28;20826;-71
2023/05/23 00:31:45;;;;;;;16.92;6.50;;;;;;;14.28;100.00;101278.91;5068972;28;20053;-71
2023/05/23 00:34:13;;;;;;;17.95;5.82;;;;;;;14.30;100.00;101278.47;5064886;28;20434;-71
2023/05/23 00:36:40;;;;;;;15.60;6.47;;;;;;;14.31;100.00;101278.03;5067910;28;20109;-73
2023/05/23 00:39:07;;;;;;;14.30;6.68;;;;;;;14.32;100.00;101285.22;5067064;28;20052;-73
2023/05/23 00:41:35;;;;;;;14.80;6.90;;;;;;;14.31;100.00;101283.63;5064117;28;20125;-71
2023/05/23 00:44:01;;;;;;;11.48;5.38;;;;;;;14.36;100.00;101285.16;5057305;28;20048;-71
2023/05/23 00:46:29;;;;;;;14.32;6.15;;;;;;;14.36;100.00;101291.56;5060091;28;20048;-71
2023/05/23 00:48:56;;;;;;;14.93;6.40;;;;;;;14.37;100.00;101297.91;5065250;28;20055;-71
2023/05/23 00:51:23;;;;;;;15.18;6.45;;;;;;;14.34;100.00;101298.75;5067965;28;20080;-72
2023/05/23 00:53:50;;;;;;;15.20;6.20;;;;;;;14.31;100.00;101288.44;5067561;28;20076;-73
2023/05/23 00:56:17;;;;;;;12.57;6.68;;;;;;;14.27;100.00;101290.53;5057966;28;20083;-73
2023/05/23 00:58:44;;;;;;;13.88;6.50;;;;;;;14.22;100.00;101297.38;5067631;28;20052;-72
2023/05/23 01:01:10;;;;;;;10.18;4.72;;;;;;;14.26;100.00;101306.53;5060641;28;20577;-72
2023/05/23 01:03:37;;;;;;;13.65;6.80;;;;;;;14.31;100.00;101294.81;5066448;28;20526;-73
2023/05/23 01:06:04;;;;;;;15.18;6.80;;;;;;;14.32;100.00;101290.03;5067164;28;20044;-74
2023/05/23 01:08:30;;;;;;;15.52;6.70;;;;;;;14.37;100.00;101283.94;5067381;28;20075;-74
2023/05/23 01:11:03;;;;;;;14.77;6.70;;;;;;;14.36;100.00;101285.16;5053607;28;20048;-73
2023/05/23 01:13:36;;;;;;;13.57;6.20;;;;;;;14.37;100.00;101289.53;5061502;28;20084;-71
2023/05/23 01:16:40;;;;;;;12.52;5.80;;;;;;;14.27;100.00;101293.31;5063680;28;20066;-74
2023/05/23 01:19:43;;;;;;;13.70;6.65;;;;;;;14.24;100.00;101291.38;5055304;28;20052;-71
2023/05/23 01:22:27;;;;;;;13.75;7.05;;;;;;;14.24;100.00;101292.16;5059278;28;20084;-72
2023/05/23 01:25:09;;;;;;;14.95;6.30;;;;;;;14.10;100.00;101286.84;5068344;28;20097;-73
2023/05/23 01:27:50;;;;;;;9.88;4.63;;;;;;;14.01;100.00;101286.63;5063708;28;20041;-73
2023/05/23 01:30:19;;;;;;;13.40;6.13;;;;;;;14.06;100.00;101288.13;5068304;28;20091;-71
2023/05/23 01:32:52;;;;;;;15.95;7.22;;;;;;;14.09;100.00;101301.25;5062682;28;20118;-71
2023/05/23 01:35:27;;;;;;;16.35;5.95;;;;;;;14.01;100.00;101297.03;5059870;28;20052;-70
2023/05/23 01:37:55;;;;;;;14.80;6.30;;;;;;;14.07;100.00;101307.28;5060158;28;20151;-71
2023/05/23 01:40:23;;;;;;;17.27;7.10;;;;;;;14.08;100.00;101300.47;5059825;28;20052;-72
2023/05/23 01:42:51;;;;;;;13.73;6.13;;;;;;;14.01;100.00;101299.81;5058604;28;20052;-72
2023/05/23 01:45:19;;;;;;;15.27;6.82;;;;;;;13.97;100.00;101301.88;5061698;28;20083;-72
2023/05/23 01:47:49;;;;;;;15.95;7.20;;;;;;;14.10;100.00;101292.44;5061224;28;20124;-71
2023/05/23 01:50:16;;;;;;;17.65;7.53;;;;;;;14.10;100.00;101300.03;5066133;28;20063;-72
2023/05/23 01:52:44;;;;;;;17.35;7.60;;;;;;;14.12;100.00;101303.19;5065322;28;20555;-71
2023/05/23 01:55:15;;;;;;;17.67;7.47;;;;;;;14.08;100.00;101302.47;5063673;28;20132;-72
2023/05/23 01:57:47;;;;;;;15.38;7.70;;;;;;;14.09;100.00;101301.25;5067306;28;20136;-72
2023/05/23 02:00:14;;;;;;;16.60;6.80;;;;;;;14.10;100.00;101314.00;5066644;28;20045;-73
2023/05/23 02:02:41;;;;;;;15.38;7.40;;;;;;;14.00;100.00;101303.81;5064580;28;20048;-72
2023/05/23 02:05:08;;;;;;;17.38;8.23;;;;;;;14.09;100.00;101313.25;5068161;28;20084;-72
2023/05/23 02:07:35;;;;;;;16.73;8.23;;;;;;;14.03;100.00;101309.34;5067857;28;20044;-73
2023/05/23 02:10:03;;;;;;;18.67;8.32;;;;;;;14.09;100.00;101304.84;5066542;28;20474;-72
2023/05/23 02:12:30;;;;;;;19.45;8.93;;;;;;;14.13;100.00;101310.38;5067962;28;20052;-72
2023/05/23 02:14:57;;;;;;;17.40;7.88;;;;;;;14.17;100.00;101303.50;5067371;28;20048;-73
2023/05/23 02:17:23;;;;;;;15.40;7.75;;;;;;;14.11;100.00;101298.84;5059597;28;20098;-68
2023/05/23 02:19:50;;;;;;;19.35;8.77;;;;;;;14.18;100.00;101304.28;5061019;28;20048;-71
2023/05/23 02:22:16;;;;;;;18.20;8.57;;;;;;;13.99;100.00;101308.63;5067580;28;20638;-72
2023/05/23 02:24:43;;;;;;;18.75;7.55;;;;;;;13.98;100.00;101306.25;5068064;28;20452;-71
2023/05/23 02:27:09;;;;;;;21.58;9.20;;;;;;;14.01;100.00;101313.81;5067655;28;20048;-70
2023/05/23 02:29:36;;;;;;;18.85;8.75;;;;;;;13.99;100.00;101305.84;5067195;28;20084;-71
2023/05/23 02:32:03;;;;;;;19.80;8.95;;;;;;;14.05;100.00;101308.94;5063028;28;20049;-71
2023/05/23 02:34:29;;;;;;;19.80;7.13;;;;;;;14.04;100.00;101310.16;5066909;28;20510;-73
2023/05/23 02:36:56;;;;;;;20.65;9.57;;;;;;;14.05;100.00;101318.09;5067572;28;20088;-71
2023/05/23 02:39:22;;;;;;;21.52;8.70;;;;;;;14.05;100.00;101326.47;5075794;28;20079;-71
2023/05/23 02:41:49;;;;;;;22.13;9.80;;;;;;;14.10;100.00;101326.00;5067295;28;20101;-73
2023/05/23 02:44:18;;;;;;;19.75;9.65;;;;;;;14.12;100.00;101331.97;5067270;28;20076;-72
2023/05/23 02:46:45;;;;;;;25.27;10.45;;;;;;;14.13;100.00;101324.34;5066126;28;20755;-73
2023/05/23 02:49:11;;;;;;;21.50;10.80;;;;;;;14.16;100.00;101329.88;5061853;28;20160;-72
2023/05/23 02:51:38;;;;;;;22.05;9.70;;;;;;;14.23;100.00;101335.34;5064228;28;20086;-72
2023/05/23 02:54:04;;;;;;;20.13;7.68;;;;;;;14.22;100.00;101333.75;5066824;28;20041;-72
2023/05/23 02:56:31;;;;;;;22.73;10.57;;;;;;;14.26;100.00;101337.28;5067127;28;20121;-73
2023/05/23 02:58:58;;;;;;;19.90;9.75;;;;;;;14.28;100.00;101331.28;5067572;28;20066;-72
2023/05/23 03:01:24;;;;;;;21.08;10.38;;;;;;;14.30;100.00;101326.03;5055296;28;20106;-74
2023/05/23 03:03:51;;;;;;;19.38;8.40;;;;;;;14.34;100.00;101343.53;5055044;28;20045;-71
2023/05/23 03:06:18;;;;;;;21.52;8.85;;;;;;;14.28;100.00;101345.25;5059040;28;20041;-69
2023/05/23 03:08:44;;;;;;;19.67;8.43;;;;;;;14.29;100.00;101336.44;5064491;28;20076;-71
2023/05/23 03:11:11;;;;;;;14.63;7.05;;;;;;;14.21;100.00;101339.78;5049621;28;20088;-71
2023/05/23 03:13:37;;;;;;;19.80;7.40;;;;;;;14.23;100.00;101342.94;5061805;28;20076;-73
2023/05/23 03:16:04;;;;;;;21.08;8.52;;;;;;;14.21;100.00;101350.97;5065973;28;20119;-71
2023/05/23 03:18:30;;;;;;;16.05;7.20;;;;;;;14.14;100.00;101353.88;5067665;28;20556;-71
2023/05/23 03:20:57;;;;;;;20.83;8.45;;;;;;;14.12;100.00;101345.16;5066608;28;20117;-70
2023/05/23 03:23:24;;;;;;;19.40;7.57;;;;;;;14.08;100.00;101348.00;5058831;28;20064;-70
2023/05/23 03:25:50;;;;;;;17.85;7.72;;;;;;;14.03;100.00;101353.28;5056982;28;20822;-71
2023/05/23 03:28:17;;;;;;;18.52;8.40;;;;;;;14.05;100.00;101348.84;5064973;28;20087;-70
2023/05/23 03:30:43;;;;;;;15.20;7.25;;;;;;;14.00;100.00;101359.72;5063815;28;20566;-70
2023/05/23 03:33:11;;;;;;;20.23;7.78;;;;;;;13.97;100.00;101361.38;5063075;28;20570;-69
2023/05/23 03:35:37;;;;;;;17.15;7.68;;;;;;;14.00;100.00;101360.53;5066499;28;20076;-70
2023/05/23 03:38:04;;;;;;;18.27;8.00;;;;;;;13.93;100.00;101365.44;5065652;28;20051;-72
2023/05/23 03:40:30;;;;;;;18.70;8.02;;;;;;;13.90;100.00;101375.47;5063564;28;20140;-72
2023/05/23 03:43:04;;;;;;;16.55;7.10;;;;;;;13.90;100.00;101377.47;5057581;28;20083;-71
2023/05/23 03:45:31;;;;;;;15.75;6.00;;;;;;;13.81;100.00;101361.22;5065672;28;20403;-70
2023/05/23 03:47:59;;;;;;;18.10;8.18;;;;;;;13.90;100.00;101375.47;5066496;28;20129;-70
2023/05/23 03:50:26;;;;;;;19.95;8.73;;;;;;;13.90;100.00;101369.06;5062407;28;20095;-70
2023/05/23 03:52:53;;;;;;;19.25;8.10;;;;;;;13.87;100.00;101381.13;5060948;28;20146;-67
2023/05/23 03:55:21;;;;;;;17.88;7.35;;;;;;;13.88;100.00;101380.69;5064894;28;20155;-73
2023/05/23 03:57:48;;;;;;;19.50;8.82;;;;;;;13.93;100.00;101390.59;5062067;28;20072;-71
2023/05/23 04:00:15;;;;;;;19.98;8.00;;;;;;;13.90;100.00;101375.47;5060481;28;20045;-73
2023/05/23 04:02:42;;;;;;;18.92;8.35;;;;;;;13.93;100.00;101385.00;5066873;28;20131;-73
2023/05/23 04:05:09;;;;;;;19.17;8.68;;;;;;;13.87;100.00;101400.69;5067202;28;20060;-72
2023/05/23 04:07:36;;;;;;;21.35;8.38;;;;;;;13.83;100.00;101399.94;5066877;28;20051;-73
2023/05/23 04:10:03;;;;;;;19.50;8.50;;;;;;;13.87;100.00;101395.88;5059447;28;20049;-71
2023/05/23 04:12:30;;;;;;;20.52;8.00;;;;;;;13.86;100.00;101399.91;5063285;28;20067;-73
2023/05/23 04:14:57;;;;;;;19.08;8.88;;;;;;;13.88;100.00;101400.25;5060329;28;20044;-72
2023/05/23 04:17:24;;;;;;;19.27;8.55;;;;;;;13.83;100.00;101403.53;5064047;28;20518;-70
2023/05/23 04:19:51;;;;;;;19.58;8.15;;;;;;;13.81;100.00;101397.56;5065947;28;20053;-73
2023/05/23 04:22:18;;;;;;;19.90;7.25;;;;;;;13.85;100.00;101411.50;5068702;28;20138;-72
2023/05/23 04:24:44;;;;;;;20.85;8.40;;;;;;;13.86;100.00;101401.88;5069745;28;20079;-71
2023/05/23 04:27:12;;;;;;;23.38;9.10;;;;;;;13.87;100.00;101409.09;5059539;28;20055;-71
2023/05/23 04:29:39;;;;;;;22.42;8.60;;;;;;;13.89;100.00;101415.03;5067844;28;20052;-69
2023/05/23 04:32:06;;;;;;;20.73;9.10;;;;;;;13.88;100.00;101405.06;5067594;28;20052;-72
2023/05/23 04:34:33;;;;;;;22.95;9.80;;;;;;;13.88;100.00;101410.66;5072628;28;20079;-71
2023/05/23 04:37:03;;;;;;;21.58;9.25;;;;;;;13.89;100.00;101410.22;5069418;28;20055;-72
2023/05/23 04:39:30;;;;;;;22.67;9.73;;;;;;;13.86;100.00;101419.47;5066801;28;20330;-71
2023/05/23 04:41:56;;;;;;;22.50;9.80;;;;;;;13.89;100.00;101417.81;5065628;28;20052;-71
2023/05/23 04:44:23;;;;;;;24.58;10.30;;;;;;;13.86;100.00;101418.66;5050102;28;20122;-70
2023/05/23 04:46:49;;;;;;;22.75;10.20;;;;;;;13.82;100.00;101410.34;5066244;28;20080;-71
2023/05/23 04:49:16;;;;;;;28.25;11.23;;;;;;;13.89;100.00;101409.44;5048168;28;20049;-70
2023/05/23 04:51:42;;;;;;;22.33;9.32;;;;;;;13.82;100.00;101418.72;5055221;28;20171;-70
2023/05/23 04:54:10;;;;;;;26.10;11.38;;;;;;;13.79;100.00;101415.97;5061693;28;20087;-71
2023/05/23 04:56:36;;;;;;;26.63;10.65;;;;;;;13.80;100.00;101420.34;5049804;28;20099;-72
2023/05/23 04:59:03;;;;;;;26.17;10.63;;;;;;;13.85;100.00;101423.47;5054256;28;20099;-72
2023/05/23 05:01:30;;;;;;;24.35;9.88;;;;;;;13.82;100.00;101423.53;5055303;28;20057;-72
2023/05/23 05:03:57;;;;;;;24.90;11.52;;;;;;;13.83;100.00;101428.69;5049275;28;20415;-71
2023/05/23 05:06:23;;;;;;;25.38;11.07;;;;;;;13.81;100.00;101430.34;5049661;28;20535;-72
2023/05/23 05:08:50;;;;;;;26.48;10.95;;;;;;;13.82;100.00;101435.50;5047210;28;20107;-71
2023/05/23 05:11:16;;;;;;;25.45;12.05;;;;;;;13.82;100.00;101434.69;5053520;28;20056;-70
2023/05/23 05:13:43;;;;;;;25.38;10.73;;;;;;;13.81;100.00;101444.31;5072438;28;20052;-72
2023/05/23 05:16:10;;;;;;;22.83;9.57;;;;;;;13.83;100.00;101445.47;5069060;28;20106;-71
2023/05/23 05:18:37;;;;;;;21.80;9.07;;;;;;;13.81;100.00;101455.50;5067507;28;20049;-71
2023/05/23 05:21:05;;;;;;;24.70;10.45;;;;;;;13.82;100.00;101451.47;5059204;28;20087;-70
2023/05/23 05:23:32;;;;;;;24.33;11.65;;;;;;;13.82;100.00;101445.88;5058962;28;20814;-70
2023/05/23 05:25:59;;;;;;;21.63;10.70;;;;;;;13.82;100.00;101452.28;5061836;28;20044;-70
2023/05/23 05:28:26;;;;;;;22.45;10.13;;;;;;;13.82;100.00;101452.28;5067389;28;20076;-70
2023/05/23 05:30:54;;;;;;;24.10;10.02;;;;;;;13.83;100.00;101453.84;5057105;28;20153;-73
2023/05/23 05:33:24;;;;;;;24.50;11.77;;;;;;;13.87;100.00;101465.75;5049534;28;20061;-70
2023/05/23 05:35:50;;;;;;;26.02;11.02;;;;;;;13.84;100.00;101463.81;5057542;28;20114;-70
2023/05/23 05:38:17;;;;;;;24.38;10.27;;;;;;;13.86;100.00;101472.56;5068614;28;20044;-70
2023/05/23 05:40:44;;;;;;;26.65;10.63;;;;;;;13.83;100.00;101467.00;5068037;28;20040;-69
2023/05/23 05:43:10;;;;;;;27.45;10.48;;;;;;;13.78;100.00;101467.50;5068333;28;20079;-68
2023/05/23 05:45:37;;;;;;;26.38;11.20;;;;;;;13.75;100.00;101476.72;5070988;28;20056;-68
2023/05/23 05:48:03;;;;;;;26.35;10.43;;;;;;;13.79;100.00;101481.06;5074024;28;20044;-67
2023/05/23 05:50:30;;;;;;;24.58;10.38;;;;;;;13.75;100.00;101474.75;5059076;28;20072;-67
2023/05/23 05:52:57;;;;;;;22.15;9.52;;;;;;;13.71;100.00;101487.19;5060956;28;20088;-71
2023/05/23 05:55:23;;;;;;;21.42;9.85;;;;;;;13.72;100.00;101483.97;5055870;28;20497;-68
2023/05/23 05:57:50;;;;;;;21.83;10.23;;;;;;;13.77;100.00;101483.47;5048430;28;20045;-70
2023/05/23 06:00:18;;;;;;;28.70;10.98;;;;;;;13.76;100.00;101481.91;5061635;28;20126;-68
2023/05/23 06:02:50;;;;;;;23.15;8.70;;;;;;;13.78;100.00;101489.88;5066221;28;20052;-69
2023/05/23 06:05:17;;;;;;;25.33;10.20;;;;;;;13.84;100.00;101490.97;5074040;28;20059;-67
2023/05/23 06:07:44;;;;;;;24.10;10.55;;;;;;;13.86;100.00;101486.53;5057685;28;20110;-68
2023/05/23 06:10:13;;;;;;;20.85;10.40;;;;;;;13.84;100.00;101482.59;5066396;28;20052;-69
2023/05/23 06:12:40;;;;;;;23.45;9.70;;;;;;;13.82;100.00;101485.00;5066164;28;20049;-68
2023/05/23 06:15:08;;;;;;;24.83;10.35;;;;;;;13.84;100.00;101494.53;5063749;28;20425;-69
2023/05/23 06:17:35;;;;;;;22.80;10.02;;;;;;;13.84;100.00;101486.16;5067822;28;20143;-69
2023/05/23 06:20:02;;;;;;;27.40;9.75;;;;;;;13.88;100.00;101488.91;5067263;28;20159;-69
2023/05/23 06:22:29;;;;;;;21.10;7.90;;;;;;;13.85;100.00;101493.34;5068491;28;20063;-67
2023/05/23 06:24:56;;;;;;;23.10;9.10;;;;;;;13.78;100.00;101492.66;5058171;28;20048;-72
2023/05/23 06:27:22;;;;;;;21.27;8.10;;;;;;;13.80;100.00;101495.81;5066209;28;20052;-70
2023/05/23 06:29:49;;;;;;;17.23;7.63;;;;;;;13.79;100.00;101509.00;5067000;28;20048;-68
2023/05/23 06:32:15;;;;;;;19.00;7.88;;;;;;;13.78;100.00;101510.19;5065975;28;20053;-68
2023/05/23 06:34:42;;;;;;;23.15;8.15;;;;;;;13.81;100.00;101511.38;5067391;28;20261;-68
2023/05/23 06:37:08;;;;;;;17.80;7.35;;;;;;;13.78;100.00;101501.81;5067448;28;20044;-71
2023/05/23 06:39:35;;;;;;;21.13;9.68;;;;;;;13.87;100.00;101509.72;5065171;28;20136;-68
2023/05/23 06:42:03;;;;;;;16.58;8.15;;;;;;;13.90;100.00;101511.63;5067115;28;20055;-67
2023/05/23 06:44:29;;;;;;;17.33;7.97;;;;;;;13.90;100.00;101520.81;5066875;28;20064;-68
2023/05/23 06:46:57;;;;;;;18.58;7.88;;;;;;;13.94;100.00;101521.56;5066259;28;20048;-68
2023/05/23 06:49:24;;;;;;;18.95;7.63;;;;;;;13.92;100.00;101528.78;5062720;28;20051;-69
2023/05/23 06:51:51;;;;;;;19.00;7.95;;;;;;;13.90;100.00;101528.41;5064044;28;20517;-68
2023/05/23 06:54:18;;;;;;;20.50;7.28;;;;;;;13.86;100.00;101530.47;5062514;28;20131;-66
2023/05/23 06:56:45;;;;;;;17.00;6.85;;;;;;;13.78;100.00;101535.34;5059600;28;20098;-69
2023/05/23 06:59:11;;;;;;;24.85;7.88;;;;;;;13.78;100.00;101540.16;5063516;28;20576;-71
2023/05/23 07:01:38;;;;;;;19.90;8.18;;;;;;;13.78;100.00;101542.97;5049769;28;20482;-66
2023/05/23 07:04:05;;;;;;;19.60;6.88;;;;;;;13.68;100.00;101547.50;5060985;28;20133;-69
2023/05/23 07:06:34;;;;;;;26.60;9.82;;;;;;;13.64;100.00;101532.75;5060612;28;20102;-67
2023/05/23 07:09:00;;;;;;;22.42;8.63;;;;;;;13.72;100.00;101553.03;5056857;28;20072;-68
2023/05/23 07:11:27;;;;;;;20.63;6.75;;;;;;;13.70;100.00;101555.44;5055044;28;20048;-70
2023/05/23 07:13:54;;;;;;;20.73;8.68;;;;;;;13.64;100.00;101557.13;5061895;28;20132;-68
2023/05/23 07:16:20;;;;;;;17.23;6.60;;;;;;;13.59;100.00;101561.16;5063533;28;20132;-67
2023/05/23 07:18:47;;;;;;;19.33;8.73;;;;;;;13.64;100.00;101563.50;5065757;28;20056;-68
2023/05/23 07:21:13;;;;;;;23.90;8.55;;;;;;;13.71;100.00;101566.19;5066951;28;20646;-67
2023/05/23 07:23:40;;;;;;;21.15;7.40;;;;;;;13.73;100.00;101568.56;5066538;28;20498;-68
2023/05/23 07:26:08;;;;;;;17.13;6.43;;;;;;;13.76;100.00;101571.34;5066192;28;20048;-71
2023/05/23 07:28:36;;;;;;;21.92;8.00;;;;;;;13.76;100.00;101573.31;5054512;28;20494;-68
2023/05/23 07:31:03;;;;;;;16.65;5.97;;;;;;;13.77;100.00;101569.34;5061582;28;20044;-67
2023/05/23 07:33:30;;;;;;;20.50;6.70;;;;;;;13.70;100.00;101575.78;5066320;28;20142;-69
2023/05/23 07:35:56;;;;;;;20.10;8.13;;;;;;;13.76;100.00;101576.13;5066999;28;20441;-67
2023/05/23 07:38:23;;;;;;;16.30;6.20;;;;;;;13.76;100.00;101576.13;5062883;28;20052;-70
2023/05/23 07:40:49;;;;;;;18.58;7.38;;;;;;;13.73;100.00;101579.75;5066021;28;20093;-67
2023/05/23 07:43:32;;;;;;;16.70;7.28;;;;;;;13.73;100.00;101582.53;5070157;28;20048;-69
2023/05/23 07:45:59;;;;;;;23.02;8.55;;;;;;;13.74;100.00;101584.16;5071066;28;20449;-70
2023/05/23 07:48:26;;;;;;;21.35;6.13;;;;;;;13.67;100.00;101592.63;5059139;28;20135;-67
2023/05/23 07:50:54;;;;;;;21.17;7.63;;;;;;;13.73;100.00;101591.72;5067052;28;20055;-70
2023/05/23 07:53:21;;;;;;;21.33;8.13;;;;;;;13.70;100.00;101600.94;5062480;28;20056;-72
2023/05/23 07:55:48;;;;;;;22.92;8.43;;;;;;;13.70;100.00;101606.53;5064451;28;20393;-69
2023/05/23 07:58:15;;;;;;;23.88;9.68;;;;;;;13.70;100.00;101606.53;5062454;28;20051;-69
2023/05/23 08:00:43;;;;;;;27.45;9.23;;;;;;;13.68;100.00;101603.38;5070393;28;20118;-69
2023/05/23 08:03:10;;;;;;;22.67;8.27;;;;;;;13.66;100.00;101602.19;5070673;28;20589;-69
2023/05/23 08:05:37;;;;;;;24.55;7.72;;;;;;;13.71;100.00;101607.34;5069886;28;20710;-72
2023/05/23 08:08:03;;;;;;;22.95;9.13;;;;;;;13.66;100.00;101607.78;5057510;28;20049;-70
2023/05/23 08:10:30;;;;;;;21.90;7.25;;;;;;;13.64;100.00;101618.59;5063903;28;20056;-70
2023/05/23 08:12:59;;;;;;;18.92;7.60;;;;;;;13.66;100.00;101616.16;5064232;28;20696;-70
2023/05/23 08:15:27;;;;;;;24.77;8.65;;;;;;;13.55;100.00;101621.88;5062230;28;20156;-69
2023/05/23 08:17:55;;;;;;;29.70;8.68;;;;;;;13.52;100.00;101624.72;5068377;28;20060;-70
2023/05/23 08:20:29;;;;;;;21.25;6.63;;;;;;;13.50;100.00;101624.34;5069299;28;20054;-68
2023/05/23 08:23:00;;;;;;;22.75;8.15;;;;;;;13.56;100.00;101631.84;5069660;28;20084;-69
2023/05/23 08:25:29;;;;;;;22.08;8.27;;;;;;;13.51;100.00;101625.94;5070075;28;20831;-69
2023/05/23 08:28:00;;;;;;;23.30;8.38;;;;;;;13.47;100.00;101639.16;5068814;28;20052;-73
2023/05/23 08:30:27;;;;;;;25.83;9.35;;;;;;;13.45;100.00;101639.56;5067629;28;20536;-68
2023/05/23 08:32:55;;;;;;;21.88;8.00;;;;;;;13.37;100.00;101634.44;5052494;28;20049;-69
2023/05/23 08:35:22;;;;;;;26.05;9.27;;;;;;;13.42;100.00;101636.75;5056805;28;20089;-68
2023/05/23 08:37:49;;;;;;;23.90;9.23;;;;;;;13.41;100.00;101640.78;5049424;28;20111;-68
2023/05/23 08:40:20;;;;;;;28.73;10.32;;;;;;;13.38;100.00;101638.81;5056475;28;20055;-69
2023/05/23 08:42:48;;;;;;;24.70;9.13;;;;;;;13.38;100.00;101649.97;5047803;28;20107;-70
2023/05/23 08:45:16;;;;;;;24.40;9.65;;;;;;;13.33;100.00;101647.66;5051137;28;20080;-68
2023/05/23 08:47:44;;;;;;;20.38;8.75;;;;;;;13.32;100.00;101648.84;5049475;28;20045;-67
2023/05/23 08:50:13;;;;;;;20.15;8.93;;;;;;;13.31;100.00;101652.84;5050159;28;20134;-68
2023/05/23 08:52:56;;;;;;;20.73;7.32;;;;;;;13.25;100.00;101660.06;5049368;28;20045;-68
2023/05/23 08:55:27;;;;;;;24.85;8.52;;;;;;;13.22;100.00;101661.69;5052385;28;20139;-68
2023/05/23 08:57:55;;;;;;;24.90;7.50;;;;;;;13.09;100.00;101662.59;5057999;28;20055;-71
2023/05/23 09:00:24;;;;;;;13.23;4.78;;;;;;;13.15;100.00;101669.34;5064806;28;20061;-70
2023/05/23 09:02:51;;;;;;;19.63;6.47;;;;;;;13.08;100.00;101666.59;5067135;28;20048;-68
2023/05/23 09:05:18;;;;;;;20.92;8.02;;;;;;;13.08;100.00;101674.97;5063545;28;20056;-68
2023/05/23 09:07:50;;;;;;;22.60;8.07;;;;;;;13.02;100.00;101676.63;5067251;28;20076;-68
2023/05/23 09:10:21;;;;;;;18.92;6.75;;;;;;;12.95;100.00;101671.09;5068451;28;20064;-69
2023/05/23 09:12:48;;;;;;;21.13;8.35;;;;;;;12.96;100.00;101681.09;5068754;28;20052;-68
2023/05/23 09:15:15;;;;;;;27.65;7.88;;;;;;;13.04;100.00;101680.63;5068084;28;20058;-70
2023/05/23 09:17:43;;;;;;;21.13;7.65;;;;;;;13.05;100.00;101686.97;5063884;28;20053;-68
2023/05/23 09:20:13;;;;;;;14.43;5.05;;;;;;;13.11;100.00;101682.53;5064894;28;20047;-71
2023/05/23 09:22:44;;;;;;;20.50;6.93;;;;;;;13.18;100.00;101679.69;5068711;28;20062;-68
2023/05/23 09:25:11;;;;;;;19.20;6.88;;;;;;;13.32;100.00;101677.56;5068917;28;20133;-68
2023/05/23 09:27:37;;;;;;;20.10;6.88;;;;;;;13.43;100.00;101671.91;5070339;28;20121;-69
2023/05/23 09:30:08;;;;;;;18.55;6.18;;;;;;;13.48;100.00;101685.41;5067729;28;20097;-67
2023/05/23 09:32:35;;;;;;;18.30;6.63;;;;;;;13.64;100.00;101682.88;5060591;28;20139;-66
2023/05/23 09:35:04;;;;;;;16.35;5.63;;;;;;;13.59;100.00;101688.91;5068913;28;20349;-68
2023/05/23 09:37:33;;;;;;;16.65;5.95;;;;;;;13.73;100.00;101695.13;5067917;28;20052;-68
2023/05/23 09:40:05;;;;;;;15.55;6.45;;;;;;;13.75;100.00;101697.50;5076891;28;20040;-69
2023/05/23 09:42:35;;;;;;;16.63;6.60;;;;;;;13.75;100.00;101697.50;5068162;28;20125;-69
2023/05/23 09:45:02;;;;;;;14.95;4.95;;;;;;;13.72;100.00;101698.34;5058855;28;20074;-67
2023/05/23 09:47:30;;;;;;;12.80;4.82;;;;;;;13.76;100.00;101693.50;5063788;28;20091;-68
2023/05/23 09:49:57;;;;;;;17.05;5.68;;;;;;;13.69;100.00;101708.34;5067626;28;20618;-68
2023/05/23 09:52:23;;;;;;;22.92;6.57;;;;;;;13.67;100.00;101707.19;5056597;28;20084;-67
2023/05/23 09:54:50;;;;;;;19.63;6.97;;;;;;;13.65;100.00;101706.81;5041690;28;20627;-68
2023/05/23 09:57:18;;;;;;;20.48;6.85;;;;;;;13.59;100.00;101717.63;5054461;28;20631;-69
2023/05/23 09:59:52;;;;;;;19.40;6.93;;;;;;;13.54;100.00;101720.09;5054099;28;20037;-68
2023/05/23 10:02:54;;;;;;;23.53;8.13;;;;;;;13.31;100.00;101715.09;5055584;28;20115;-71
2023/05/23 10:06:06;;;;;;;20.63;7.07;;;;;;;13.22;100.00;101730.72;5045254;28;20095;-68
2023/05/23 10:08:38;;;;;;;;;;;;;;;13.13;100.00;101717.22;5048403;28;20048;-70
2023/05/23 10:11:34;;;;;;;21.90;7.43;;;;;;;13.00;100.00;101718.91;5057307;28;19931;-68
2023/05/23 10:14:02;;;;;;;15.15;6.75;;;;;;;12.98;100.00;101717.72;5062145;28;20044;-70
2023/05/23 10:16:53;;;;;;;24.13;7.47;;;;;;;12.88;100.00;101721.41;5059227;28;20053;-68
2023/05/23 10:19:39;;;;;;;24.08;7.07;;;;;;;12.89;100.00;101717.41;5056292;28;20048;-68
2023/05/23 10:22:09;;;;;;;19.48;7.03;;;;;;;12.91;100.00;101717.78;5058171;28;20603;-68
2023/05/23 10:24:36;;;;;;;21.98;6.75;;;;;;;13.07;100.00;101723.66;5049475;28;20095;-67
2023/05/23 10:27:03;;;;;;;21.55;6.80;;;;;;;13.19;100.00;101715.56;5061773;28;20091;-68
2023/05/23 10:29:32;;;;;;;22.50;7.43;;;;;;;13.45;100.00;101719.78;5062761;28;20697;-68
2023/05/23 10:32:01;;;;;;;16.67;5.63;;;;;;;13.67;100.00;101715.56;5060537;28;20119;-69
2023/05/23 10:34:39;;;;;;;17.50;5.53;;;;;;;14.00;100.00;101720.38;5065952;28;20144;-70
2023/05/23 10:37:09;;;;;;;16.02;5.82;;;;;;;14.20;100.00;101719.34;5061877;28;20054;-69
2023/05/23 10:39:53;;;;;;;13.93;5.72;;;;;;;14.31;100.00;101720.00;5053642;28;20553;-71
2023/05/23 10:42:51;;;;;;;16.03;4.63;;;;;;;14.39;100.00;101724.28;5053729;28;20107;-73
2023/05/23 10:45:23;;;;;;;19.08;6.65;;;;;;;14.50;100.00;101710.19;5057524;28;20056;-69
2023/05/23 10:47:51;;;;;;;17.60;7.38;;;;;;;14.63;100.00;101720.41;5064764;28;20815;-70
2023/05/23 10:50:35;;;;;;;18.40;5.60;;;;;;;14.67;100.00;101720.34;5060883;28;20099;-70
2023/05/23 10:53:04;;;;;;;15.85;4.18;;;;;;;14.72;100.00;101729.06;5054159;28;20052;-70
2023/05/23 10:55:33;;;;;;;16.48;5.00;;;;;;;14.66;100.00;101727.94;5061739;28;20055;-69
2023/05/23 10:58:10;;;;;;;11.40;4.13;;;;;;;14.61;100.00;101733.22;5042416;28;20814;-69
2023/05/23 11:00:37;;;;;;;13.40;4.45;;;;;;;14.62;100.00;101737.63;5053504;28;20095;-68
2023/05/23 11:03:07;;;;;;;14.95;5.05;;;;;;;14.60;100.00;101724.03;5059484;28;20663;-71
2023/05/23 11:05:46;;;;;;;18.08;5.70;;;;;;;14.61;100.00;101730.41;5052911;28;20142;-71
2023/05/23 11:08:13;;;;;;;9.50;2.63;;;;;;;14.53;100.00;101729.75;5051430;28;20465;-71
2023/05/23 11:11:00;;;;;;;14.88;5.40;;;;;;;14.44;100.00;101745.44;5054872;28;20056;-71
2023/05/23 11:13:51;;;;;;;19.88;5.47;;;;;;;14.48;100.00;101743.38;5052647;28;20084;-72
2023/05/23 11:16:29;;;;;;;14.80;5.43;;;;;;;14.49;100.00;101747.78;5065473;28;20392;-70
2023/05/23 11:19:18;;;;;;;20.67;6.40;;;;;;;14.53;100.00;101749.34;5046119;28;20058;-71